sensor_id;sensor_type;location;lat;lon;timestamp;temperature;humidity
33508;DHT22;25568;37.410;-122.096;2024-01-06T00:02:16;19.30;89.30
33508;DHT22;25568;37.410;-122.096;2024-01-06T00:04:46;19.20;89.30
33508;DHT22;25568;37.410;-122.096;2024-01-06T00:07:16;19.20;89.30
33508;DHT22;25568;37.410;-122.096;2024-01-06T00:09:48;19.30;89.40
33508;DHT22;25568;37.410;-122.096;2024-01-06T00:12:17;19.30;89.40
33508;DHT22;25568;37.410;-122.096;2024-01-06T00:14:46;19.30;89.30
33508;DHT22;25568;37.410;-122.096;2024-01-06T00:17:16;19.30;89.20
33508;DHT22;25568;37.410;-122.096;2024-01-06T00:19:46;19.30;89.20
33508;DHT22;25568;37.410;-122.096;2024-01-06T00:22:17;19.30;89.20
33508;DHT22;25568;37.410;-122.096;2024-01-06T00:24:49;19.30;89.10
33508;DHT22;25568;37.410;-122.096;2024-01-06T00:27:18;19.30;88.90
33508;DHT22;25568;37.410;-122.096;2024-01-06T00:29:48;19.30;88.90
33508;DHT22;25568;37.410;-122.096;2024-01-06T00:32:17;19.30;88.60
33508;DHT22;25568;37.410;-122.096;2024-01-06T00:34:46;19.30;88.40
33508;DHT22;25568;37.410;-122.096;2024-01-06T00:37:18;19.30;88.00
33508;DHT22;25568;37.410;-122.096;2024-01-06T00:39:49;19.30;86.90
33508;DHT22;25568;37.410;-122.096;2024-01-06T00:42:18;19.30;86.10
33508;DHT22;25568;37.410;-122.096;2024-01-06T00:44:48;19.30;85.80
33508;DHT22;25568;37.410;-122.096;2024-01-06T00:47:18;19.40;85.40
33508;DHT22;25568;37.410;-122.096;2024-01-06T00:49:51;19.40;84.90
33508;DHT22;25568;37.410;-122.096;2024-01-06T00:52:20;19.40;84.60
33508;DHT22;25568;37.410;-122.096;2024-01-06T00:54:51;19.40;84.10
33508;DHT22;25568;37.410;-122.096;2024-01-06T00:57:21;19.40;83.80
33508;DHT22;25568;37.410;-122.096;2024-01-06T00:59:51;19.40;83.60
33508;DHT22;25568;37.410;-122.096;2024-01-06T01:02:20;19.40;83.50
33508;DHT22;25568;37.410;-122.096;2024-01-06T01:04:49;19.40;83.40
33508;DHT22;25568;37.410;-122.096;2024-01-06T01:07:19;19.40;83.60
33508;DHT22;25568;37.410;-122.096;2024-01-06T01:09:51;19.40;83.60
33508;DHT22;25568;37.410;-122.096;2024-01-06T01:12:20;19.40;83.60
33508;DHT22;25568;37.410;-122.096;2024-01-06T01:14:50;19.40;83.70
33508;DHT22;25568;37.410;-122.096;2024-01-06T01:17:23;19.40;83.80
33508;DHT22;25568;37.410;-122.096;2024-01-06T01:19:54;19.40;83.70
33508;DHT22;25568;37.410;-122.096;2024-01-06T01:22:23;19.40;83.80
33508;DHT22;25568;37.410;-122.096;2024-01-06T01:25:03;19.40;83.80
33508;DHT22;25568;37.410;-122.096;2024-01-06T01:27:34;19.40;83.80
33508;DHT22;25568;37.410;-122.096;2024-01-06T01:30:05;19.50;83.80
33508;DHT22;25568;37.410;-122.096;2024-01-06T01:32:34;19.40;83.80
33508;DHT22;25568;37.410;-122.096;2024-01-06T01:35:05;19.50;83.90
33508;DHT22;25568;37.410;-122.096;2024-01-06T01:37:36;19.50;83.80
33508;DHT22;25568;37.410;-122.096;2024-01-06T01:40:10;19.50;83.80
33508;DHT22;25568;37.410;-122.096;2024-01-06T01:42:41;19.50;83.80
33508;DHT22;25568;37.410;-122.096;2024-01-06T01:45:10;19.50;83.90
33508;DHT22;25568;37.410;-122.096;2024-01-06T01:47:40;19.50;83.80
33508;DHT22;25568;37.410;-122.096;2024-01-06T01:50:13;19.50;83.80
33508;DHT22;25568;37.410;-122.096;2024-01-06T01:52:43;19.50;83.90
33508;DHT22;25568;37.410;-122.096;2024-01-06T01:55:16;19.50;85.60
33508;DHT22;25568;37.410;-122.096;2024-01-06T01:57:47;19.50;88.60
33508;DHT22;25568;37.410;-122.096;2024-01-06T02:00:16;19.50;90.30
33508;DHT22;25568;37.410;-122.096;2024-01-06T02:02:46;19.50;87.90
33508;DHT22;25568;37.410;-122.096;2024-01-06T02:05:16;19.50;86.90
33508;DHT22;25568;37.410;-122.096;2024-01-06T02:07:46;19.50;86.20
33508;DHT22;25568;37.410;-122.096;2024-01-06T02:10:20;19.40;85.50
33508;DHT22;25568;37.410;-122.096;2024-01-06T02:12:51;19.40;85.10
33508;DHT22;25568;37.410;-122.096;2024-01-06T02:15:21;19.40;84.60
33508;DHT22;25568;37.410;-122.096;2024-01-06T02:17:50;19.40;84.30
33508;DHT22;25568;37.410;-122.096;2024-01-06T02:20:21;19.40;85.10
33508;DHT22;25568;37.410;-122.096;2024-01-06T02:22:53;19.40;84.90
33508;DHT22;25568;37.410;-122.096;2024-01-06T02:25:27;19.50;85.00
33508;DHT22;25568;37.410;-122.096;2024-01-06T02:27:57;19.50;85.10
33508;DHT22;25568;37.410;-122.096;2024-01-06T02:30:27;19.50;85.30
33508;DHT22;25568;37.410;-122.096;2024-01-06T02:32:56;19.50;85.50
33508;DHT22;25568;37.410;-122.096;2024-01-06T02:35:27;19.50;85.80
33508;DHT22;25568;37.410;-122.096;2024-01-06T02:37:59;19.50;85.80
33508;DHT22;25568;37.410;-122.096;2024-01-06T02:40:28;19.50;86.00
33508;DHT22;25568;37.410;-122.096;2024-01-06T02:42:58;19.50;85.90
33508;DHT22;25568;37.410;-122.096;2024-01-06T02:45:28;19.50;85.80
33508;DHT22;25568;37.410;-122.096;2024-01-06T02:47:57;19.50;85.80
33508;DHT22;25568;37.410;-122.096;2024-01-06T02:50:27;19.50;86.40
33508;DHT22;25568;37.410;-122.096;2024-01-06T02:52:58;19.50;85.80
33508;DHT22;25568;37.410;-122.096;2024-01-06T02:55:28;19.50;85.70
33508;DHT22;25568;37.410;-122.096;2024-01-06T02:57:57;19.50;85.60
33508;DHT22;25568;37.410;-122.096;2024-01-06T03:00:40;19.60;85.80
33508;DHT22;25568;37.410;-122.096;2024-01-06T03:03:10;19.50;85.80
33508;DHT22;25568;37.410;-122.096;2024-01-06T03:05:42;19.50;85.70
33508;DHT22;25568;37.410;-122.096;2024-01-06T03:08:15;19.50;85.90
33508;DHT22;25568;37.410;-122.096;2024-01-06T03:10:44;19.50;85.70
33508;DHT22;25568;37.410;-122.096;2024-01-06T03:13:13;19.50;85.70
33508;DHT22;25568;37.410;-122.096;2024-01-06T03:15:46;19.50;85.60
33508;DHT22;25568;37.410;-122.096;2024-01-06T03:18:16;19.50;85.70
33508;DHT22;25568;37.410;-122.096;2024-01-06T03:20:45;19.50;85.60
33508;DHT22;25568;37.410;-122.096;2024-01-06T03:23:17;19.50;85.60
33508;DHT22;25568;37.410;-122.096;2024-01-06T03:25:47;19.50;85.70
33508;DHT22;25568;37.410;-122.096;2024-01-06T03:28:19;19.50;85.80
33508;DHT22;25568;37.410;-122.096;2024-01-06T03:30:49;19.50;85.60
33508;DHT22;25568;37.410;-122.096;2024-01-06T03:33:20;19.50;85.60
33508;DHT22;25568;37.410;-122.096;2024-01-06T03:35:49;19.50;85.50
33508;DHT22;25568;37.410;-122.096;2024-01-06T03:38:22;19.50;86.30
33508;DHT22;25568;37.410;-122.096;2024-01-06T03:40:51;19.50;85.40
33508;DHT22;25568;37.410;-122.096;2024-01-06T03:43:21;19.50;85.40
33508;DHT22;25568;37.410;-122.096;2024-01-06T03:45:50;19.50;85.30
33508;DHT22;25568;37.410;-122.096;2024-01-06T03:48:22;19.40;85.10
33508;DHT22;25568;37.410;-122.096;2024-01-06T03:50:51;19.50;85.10
33508;DHT22;25568;37.410;-122.096;2024-01-06T03:53:22;19.40;85.00
33508;DHT22;25568;37.410;-122.096;2024-01-06T03:55:55;19.40;85.00
33508;DHT22;25568;37.410;-122.096;2024-01-06T03:58:25;19.40;84.80
33508;DHT22;25568;37.410;-122.096;2024-01-06T04:00:54;19.40;84.80
33508;DHT22;25568;37.410;-122.096;2024-01-06T04:03:27;19.40;84.80
33508;DHT22;25568;37.410;-122.096;2024-01-06T04:05:56;19.40;84.60
33508;DHT22;25568;37.410;-122.096;2024-01-06T04:08:27;19.40;84.70
33508;DHT22;25568;37.410;-122.096;2024-01-06T04:10:56;19.40;84.80
33508;DHT22;25568;37.410;-122.096;2024-01-06T04:13:25;19.40;84.70
33508;DHT22;25568;37.410;-122.096;2024-01-06T04:15:55;19.40;84.60
33508;DHT22;25568;37.410;-122.096;2024-01-06T04:18:25;19.40;84.40
33508;DHT22;25568;37.410;-122.096;2024-01-06T04:20:55;19.40;84.50
33508;DHT22;25568;37.410;-122.096;2024-01-06T04:23:27;19.40;84.30
33508;DHT22;25568;37.410;-122.096;2024-01-06T04:25:57;19.40;84.50
33508;DHT22;25568;37.410;-122.096;2024-01-06T04:28:26;19.40;84.00
33508;DHT22;25568;37.410;-122.096;2024-01-06T04:30:56;19.40;84.10
33508;DHT22;25568;37.410;-122.096;2024-01-06T04:33:25;19.40;83.60
33508;DHT22;25568;37.410;-122.096;2024-01-06T04:35:55;19.40;83.50
33508;DHT22;25568;37.410;-122.096;2024-01-06T04:38:26;19.40;83.50
33508;DHT22;25568;37.410;-122.096;2024-01-06T04:40:56;19.40;83.30
33508;DHT22;25568;37.410;-122.096;2024-01-06T04:43:26;19.40;83.50
33508;DHT22;25568;37.410;-122.096;2024-01-06T04:45:55;19.40;83.60
33508;DHT22;25568;37.410;-122.096;2024-01-06T04:48:26;19.40;83.50
33508;DHT22;25568;37.410;-122.096;2024-01-06T04:50:56;19.40;83.60
33508;DHT22;25568;37.410;-122.096;2024-01-06T04:53:32;19.40;83.60
33508;DHT22;25568;37.410;-122.096;2024-01-06T04:56:02;19.30;83.50
33508;DHT22;25568;37.410;-122.096;2024-01-06T04:58:32;19.30;83.40
33508;DHT22;25568;37.410;-122.096;2024-01-06T05:01:03;19.30;83.40
33508;DHT22;25568;37.410;-122.096;2024-01-06T05:03:33;19.30;83.30
33508;DHT22;25568;37.410;-122.096;2024-01-06T05:06:03;19.30;83.30
33508;DHT22;25568;37.410;-122.096;2024-01-06T05:08:35;19.30;83.00
33508;DHT22;25568;37.410;-122.096;2024-01-06T05:11:11;19.30;83.00
33508;DHT22;25568;37.410;-122.096;2024-01-06T05:13:43;19.30;83.10
33508;DHT22;25568;37.410;-122.096;2024-01-06T05:16:15;19.20;83.10
33508;DHT22;25568;37.410;-122.096;2024-01-06T05:18:45;19.20;83.20
33508;DHT22;25568;37.410;-122.096;2024-01-06T05:21:14;19.20;83.60
33508;DHT22;25568;37.410;-122.096;2024-01-06T05:23:46;19.20;83.60
33508;DHT22;25568;37.410;-122.096;2024-01-06T05:26:16;19.20;83.80
33508;DHT22;25568;37.410;-122.096;2024-01-06T05:28:46;19.20;83.90
33508;DHT22;25568;37.410;-122.096;2024-01-06T05:31:16;19.20;84.10
33508;DHT22;25568;37.410;-122.096;2024-01-06T05:33:45;19.20;84.30
33508;DHT22;25568;37.410;-122.096;2024-01-06T05:36:19;19.20;84.40
33508;DHT22;25568;37.410;-122.096;2024-01-06T05:38:51;19.20;84.50
33508;DHT22;25568;37.410;-122.096;2024-01-06T05:41:20;19.20;84.50
33508;DHT22;25568;37.410;-122.096;2024-01-06T05:43:49;19.10;84.50
33508;DHT22;25568;37.410;-122.096;2024-01-06T05:46:23;19.10;84.60
33508;DHT22;25568;37.410;-122.096;2024-01-06T05:48:53;19.10;84.80
33508;DHT22;25568;37.410;-122.096;2024-01-06T05:51:23;19.10;84.80
33508;DHT22;25568;37.410;-122.096;2024-01-06T05:53:55;19.10;84.80
33508;DHT22;25568;37.410;-122.096;2024-01-06T05:56:25;19.10;85.00
33508;DHT22;25568;37.410;-122.096;2024-01-06T05:58:55;19.10;85.00
33508;DHT22;25568;37.410;-122.096;2024-01-06T06:01:25;19.10;85.00
33508;DHT22;25568;37.410;-122.096;2024-01-06T06:03:54;19.10;85.10
33508;DHT22;25568;37.410;-122.096;2024-01-06T06:06:23;19.00;85.00
33508;DHT22;25568;37.410;-122.096;2024-01-06T06:08:56;19.00;85.10
33508;DHT22;25568;37.410;-122.096;2024-01-06T06:11:27;19.00;85.10
33508;DHT22;25568;37.410;-122.096;2024-01-06T06:13:56;19.00;85.10
33508;DHT22;25568;37.410;-122.096;2024-01-06T06:16:25;19.00;85.20
33508;DHT22;25568;37.410;-122.096;2024-01-06T06:18:56;19.00;85.30
33508;DHT22;25568;37.410;-122.096;2024-01-06T06:21:27;19.00;85.40
33508;DHT22;25568;37.410;-122.096;2024-01-06T06:24:00;19.00;85.50
33508;DHT22;25568;37.410;-122.096;2024-01-06T06:26:30;18.90;86.10
33508;DHT22;25568;37.410;-122.096;2024-01-06T06:29:02;19.00;85.90
33508;DHT22;25568;37.410;-122.096;2024-01-06T06:31:35;19.00;86.20
33508;DHT22;25568;37.410;-122.096;2024-01-06T06:34:05;19.00;85.90
33508;DHT22;25568;37.410;-122.096;2024-01-06T06:36:35;19.00;86.90
33508;DHT22;25568;37.410;-122.096;2024-01-06T06:39:10;19.00;86.20
33508;DHT22;25568;37.410;-122.096;2024-01-06T06:41:40;19.00;86.30
33508;DHT22;25568;37.410;-122.096;2024-01-06T06:44:08;19.00;86.20
33508;DHT22;25568;37.410;-122.096;2024-01-06T06:46:39;19.00;86.00
33508;DHT22;25568;37.410;-122.096;2024-01-06T06:49:10;19.00;86.10
33508;DHT22;25568;37.410;-122.096;2024-01-06T06:51:39;19.00;86.10
33508;DHT22;25568;37.410;-122.096;2024-01-06T06:54:15;19.00;85.70
33508;DHT22;25568;37.410;-122.096;2024-01-06T06:56:44;18.90;85.50
33508;DHT22;25568;37.410;-122.096;2024-01-06T06:59:14;18.90;85.40
33508;DHT22;25568;37.410;-122.096;2024-01-06T07:01:43;18.90;85.40
33508;DHT22;25568;37.410;-122.096;2024-01-06T07:04:16;18.90;85.40
33508;DHT22;25568;37.410;-122.096;2024-01-06T07:06:54;18.80;85.60
33508;DHT22;25568;37.410;-122.096;2024-01-06T07:09:40;18.90;85.80
33508;DHT22;25568;37.410;-122.096;2024-01-06T07:12:11;18.80;85.80
33508;DHT22;25568;37.410;-122.096;2024-01-06T07:14:41;18.80;85.80
33508;DHT22;25568;37.410;-122.096;2024-01-06T07:17:12;18.80;85.90
33508;DHT22;25568;37.410;-122.096;2024-01-06T07:19:43;18.80;86.00
33508;DHT22;25568;37.410;-122.096;2024-01-06T07:22:14;18.70;86.10
33508;DHT22;25568;37.410;-122.096;2024-01-06T07:24:48;18.70;86.10
33508;DHT22;25568;37.410;-122.096;2024-01-06T07:27:18;18.70;86.20
33508;DHT22;25568;37.410;-122.096;2024-01-06T07:29:49;18.60;87.00
33508;DHT22;25568;37.410;-122.096;2024-01-06T07:32:19;18.60;86.40
33508;DHT22;25568;37.410;-122.096;2024-01-06T07:34:53;18.60;86.30
33508;DHT22;25568;37.410;-122.096;2024-01-06T07:37:30;18.60;86.30
33508;DHT22;25568;37.410;-122.096;2024-01-06T07:40:01;18.60;86.40
33508;DHT22;25568;37.410;-122.096;2024-01-06T07:42:30;18.60;87.20
33508;DHT22;25568;37.410;-122.096;2024-01-06T07:45:02;18.70;87.60
33508;DHT22;25568;37.410;-122.096;2024-01-06T07:47:31;18.70;88.00
33508;DHT22;25568;37.410;-122.096;2024-01-06T07:50:00;18.70;88.20
33508;DHT22;25568;37.410;-122.096;2024-01-06T07:52:32;18.70;88.30
33508;DHT22;25568;37.410;-122.096;2024-01-06T07:55:07;18.70;88.50
33508;DHT22;25568;37.410;-122.096;2024-01-06T07:57:36;18.60;88.40
33508;DHT22;25568;37.410;-122.096;2024-01-06T08:00:10;18.60;88.80
33508;DHT22;25568;37.410;-122.096;2024-01-06T08:02:42;18.60;89.40
33508;DHT22;25568;37.410;-122.096;2024-01-06T08:05:12;18.60;89.10
33508;DHT22;25568;37.410;-122.096;2024-01-06T08:07:42;18.60;89.30
33508;DHT22;25568;37.410;-122.096;2024-01-06T08:10:14;18.60;89.30
33508;DHT22;25568;37.410;-122.096;2024-01-06T08:12:43;18.60;89.30
33508;DHT22;25568;37.410;-122.096;2024-01-06T08:18:34;18.60;89.50
33508;DHT22;25568;37.410;-122.096;2024-01-06T08:21:04;18.60;89.70
33508;DHT22;25568;37.410;-122.096;2024-01-06T08:27:04;18.50;90.00
33508;DHT22;25568;37.410;-122.096;2024-01-06T08:29:36;18.50;89.90
33508;DHT22;25568;37.410;-122.096;2024-01-06T08:32:06;18.50;90.00
33508;DHT22;25568;37.410;-122.096;2024-01-06T08:34:37;18.50;90.00
33508;DHT22;25568;37.410;-122.096;2024-01-06T08:37:06;18.50;90.00
33508;DHT22;25568;37.410;-122.096;2024-01-06T08:39:35;18.50;90.00
33508;DHT22;25568;37.410;-122.096;2024-01-06T08:42:07;18.50;90.20
33508;DHT22;25568;37.410;-122.096;2024-01-06T08:44:36;18.50;90.20
33508;DHT22;25568;37.410;-122.096;2024-01-06T08:47:07;18.50;90.40
33508;DHT22;25568;37.410;-122.096;2024-01-06T08:49:37;18.50;90.30
33508;DHT22;25568;37.410;-122.096;2024-01-06T08:52:07;18.40;90.30
33508;DHT22;25568;37.410;-122.096;2024-01-06T08:54:39;18.50;90.20
33508;DHT22;25568;37.410;-122.096;2024-01-06T08:57:10;18.40;90.30
33508;DHT22;25568;37.410;-122.096;2024-01-06T08:59:39;18.40;90.30
33508;DHT22;25568;37.410;-122.096;2024-01-06T09:02:11;18.40;90.20
33508;DHT22;25568;37.410;-122.096;2024-01-06T09:04:40;18.40;90.20
33508;DHT22;25568;37.410;-122.096;2024-01-06T09:07:10;18.40;90.20
33508;DHT22;25568;37.410;-122.096;2024-01-06T09:09:40;18.40;90.20
33508;DHT22;25568;37.410;-122.096;2024-01-06T09:12:14;18.40;90.30
33508;DHT22;25568;37.410;-122.096;2024-01-06T09:14:43;18.40;90.40
33508;DHT22;25568;37.410;-122.096;2024-01-06T09:17:12;18.40;90.30
33508;DHT22;25568;37.410;-122.096;2024-01-06T09:19:53;18.40;90.30
33508;DHT22;25568;37.410;-122.096;2024-01-06T09:22:25;18.40;90.30
33508;DHT22;25568;37.410;-122.096;2024-01-06T09:24:54;18.40;90.30
33508;DHT22;25568;37.410;-122.096;2024-01-06T09:27:26;18.40;90.40
33508;DHT22;25568;37.410;-122.096;2024-01-06T09:29:56;18.40;90.30
33508;DHT22;25568;37.410;-122.096;2024-01-06T09:32:24;18.40;90.10
33508;DHT22;25568;37.410;-122.096;2024-01-06T09:34:55;18.40;90.10
33508;DHT22;25568;37.410;-122.096;2024-01-06T09:37:24;18.40;90.00
33508;DHT22;25568;37.410;-122.096;2024-01-06T09:39:54;18.30;90.00
33508;DHT22;25568;37.410;-122.096;2024-01-06T09:42:28;18.30;90.00
33508;DHT22;25568;37.410;-122.096;2024-01-06T09:45:00;18.40;90.00
33508;DHT22;25568;37.410;-122.096;2024-01-06T09:47:33;18.40;90.00
33508;DHT22;25568;37.410;-122.096;2024-01-06T09:50:02;18.30;89.90
33508;DHT22;25568;37.410;-122.096;2024-01-06T09:52:40;18.30;89.70
33508;DHT22;25568;37.410;-122.096;2024-01-06T09:55:11;18.30;89.90
33508;DHT22;25568;37.410;-122.096;2024-01-06T09:57:45;18.30;89.80
33508;DHT22;25568;37.410;-122.096;2024-01-06T10:00:15;18.30;89.90
33508;DHT22;25568;37.410;-122.096;2024-01-06T10:02:46;18.30;89.80
33508;DHT22;25568;37.410;-122.096;2024-01-06T10:05:16;18.30;89.90
33508;DHT22;25568;37.410;-122.096;2024-01-06T10:07:46;18.30;89.90
33508;DHT22;25568;37.410;-122.096;2024-01-06T10:10:16;18.30;89.90
33508;DHT22;25568;37.410;-122.096;2024-01-06T10:12:53;18.30;90.00
33508;DHT22;25568;37.410;-122.096;2024-01-06T10:15:23;18.30;89.80
33508;DHT22;25568;37.410;-122.096;2024-01-06T10:17:54;18.30;89.90
33508;DHT22;25568;37.410;-122.096;2024-01-06T10:20:24;18.30;89.90
33508;DHT22;25568;37.410;-122.096;2024-01-06T10:22:54;18.30;90.00
33508;DHT22;25568;37.410;-122.096;2024-01-06T10:25:24;18.30;89.90
33508;DHT22;25568;37.410;-122.096;2024-01-06T10:27:55;18.30;89.80
33508;DHT22;25568;37.410;-122.096;2024-01-06T10:30:25;18.30;90.00
33508;DHT22;25568;37.410;-122.096;2024-01-06T10:32:55;18.30;90.10
33508;DHT22;25568;37.410;-122.096;2024-01-06T10:35:25;18.30;90.00
33508;DHT22;25568;37.410;-122.096;2024-01-06T10:37:54;18.30;90.00
33508;DHT22;25568;37.410;-122.096;2024-01-06T10:40:25;18.30;90.00
33508;DHT22;25568;37.410;-122.096;2024-01-06T10:42:56;18.30;89.90
33508;DHT22;25568;37.410;-122.096;2024-01-06T10:45:26;18.20;89.90
33508;DHT22;25568;37.410;-122.096;2024-01-06T10:47:58;18.20;89.90
33508;DHT22;25568;37.410;-122.096;2024-01-06T10:50:31;18.20;90.00
33508;DHT22;25568;37.410;-122.096;2024-01-06T10:53:02;18.20;89.90
33508;DHT22;25568;37.410;-122.096;2024-01-06T10:55:34;18.20;89.90
33508;DHT22;25568;37.410;-122.096;2024-01-06T10:58:06;18.20;90.00
33508;DHT22;25568;37.410;-122.096;2024-01-06T11:00:38;18.20;90.00
33508;DHT22;25568;37.410;-122.096;2024-01-06T11:03:10;18.20;89.90
33508;DHT22;25568;37.410;-122.096;2024-01-06T11:05:41;18.20;90.00
33508;DHT22;25568;37.410;-122.096;2024-01-06T11:08:18;18.20;90.00
33508;DHT22;25568;37.410;-122.096;2024-01-06T11:10:51;18.10;89.90
33508;DHT22;25568;37.410;-122.096;2024-01-06T11:13:26;18.10;89.80
33508;DHT22;25568;37.410;-122.096;2024-01-06T11:15:55;18.10;89.80
33508;DHT22;25568;37.410;-122.096;2024-01-06T11:18:33;18.10;90.00
33508;DHT22;25568;37.410;-122.096;2024-01-06T11:21:18;18.10;89.90
33508;DHT22;25568;37.410;-122.096;2024-01-06T11:24:11;18.10;89.90
33508;DHT22;25568;37.410;-122.096;2024-01-06T11:26:44;18.10;90.20
33508;DHT22;25568;37.410;-122.096;2024-01-06T11:29:15;18.10;90.20
33508;DHT22;25568;37.410;-122.096;2024-01-06T11:34:23;18.10;90.50
33508;DHT22;25568;37.410;-122.096;2024-01-06T11:36:52;18.10;90.40
33508;DHT22;25568;37.410;-122.096;2024-01-06T11:39:37;18.00;90.60
33508;DHT22;25568;37.410;-122.096;2024-01-06T11:42:10;18.10;90.60
33508;DHT22;25568;37.410;-122.096;2024-01-06T11:44:45;18.00;90.60
33508;DHT22;25568;37.410;-122.096;2024-01-06T11:47:19;18.00;90.70
33508;DHT22;25568;37.410;-122.096;2024-01-06T11:49:55;18.00;90.10
33508;DHT22;25568;37.410;-122.096;2024-01-06T11:52:25;18.10;89.70
33508;DHT22;25568;37.410;-122.096;2024-01-06T11:54:55;18.10;89.30
33508;DHT22;25568;37.410;-122.096;2024-01-06T11:57:26;18.10;89.00
33508;DHT22;25568;37.410;-122.096;2024-01-06T12:02:45;18.20;88.70
33508;DHT22;25568;37.410;-122.096;2024-01-06T12:05:15;18.20;88.70
33508;DHT22;25568;37.410;-122.096;2024-01-06T12:07:53;18.20;88.60
33508;DHT22;25568;37.410;-122.096;2024-01-06T12:10:23;18.30;88.50
33508;DHT22;25568;37.410;-122.096;2024-01-06T12:13:00;18.30;88.40
33508;DHT22;25568;37.410;-122.096;2024-01-06T12:15:33;18.30;88.40
33508;DHT22;25568;37.410;-122.096;2024-01-06T12:18:05;18.30;88.40
33508;DHT22;25568;37.410;-122.096;2024-01-06T12:20:34;18.40;88.60
33508;DHT22;25568;37.410;-122.096;2024-01-06T12:23:03;18.40;88.70
33508;DHT22;25568;37.410;-122.096;2024-01-06T12:25:34;18.40;88.90
33508;DHT22;25568;37.410;-122.096;2024-01-06T12:28:06;18.40;89.50
33508;DHT22;25568;37.410;-122.096;2024-01-06T12:30:39;18.40;89.70
33508;DHT22;25568;37.410;-122.096;2024-01-06T12:33:08;18.30;90.00
33508;DHT22;25568;37.410;-122.096;2024-01-06T12:35:39;18.30;90.00
33508;DHT22;25568;37.410;-122.096;2024-01-06T12:38:09;18.30;90.40
33508;DHT22;25568;37.410;-122.096;2024-01-06T12:40:42;18.30;90.40
33508;DHT22;25568;37.410;-122.096;2024-01-06T12:43:12;18.30;90.40
33508;DHT22;25568;37.410;-122.096;2024-01-06T12:45:44;18.30;90.30
33508;DHT22;25568;37.410;-122.096;2024-01-06T12:48:13;18.20;90.30
33508;DHT22;25568;37.410;-122.096;2024-01-06T12:50:43;18.20;90.70
33508;DHT22;25568;37.410;-122.096;2024-01-06T12:53:12;18.20;90.40
33508;DHT22;25568;37.410;-122.096;2024-01-06T12:55:44;18.20;90.60
33508;DHT22;25568;37.410;-122.096;2024-01-06T12:58:14;18.20;90.40
33508;DHT22;25568;37.410;-122.096;2024-01-06T13:00:45;18.20;90.30
33508;DHT22;25568;37.410;-122.096;2024-01-06T13:03:16;18.10;90.20
33508;DHT22;25568;37.410;-122.096;2024-01-06T13:05:46;18.10;90.20
33508;DHT22;25568;37.410;-122.096;2024-01-06T13:08:15;18.10;90.10
33508;DHT22;25568;37.410;-122.096;2024-01-06T13:10:45;18.10;90.20
33508;DHT22;25568;37.410;-122.096;2024-01-06T13:13:14;18.10;90.20
33508;DHT22;25568;37.410;-122.096;2024-01-06T13:15:46;18.10;90.10
33508;DHT22;25568;37.410;-122.096;2024-01-06T13:18:15;18.10;90.00
33508;DHT22;25568;37.410;-122.096;2024-01-06T13:20:45;18.10;90.00
33508;DHT22;25568;37.410;-122.096;2024-01-06T13:23:14;18.00;90.00
33508;DHT22;25568;37.410;-122.096;2024-01-06T13:25:44;18.00;90.00
33508;DHT22;25568;37.410;-122.096;2024-01-06T13:28:15;18.00;90.00
33508;DHT22;25568;37.410;-122.096;2024-01-06T13:30:46;18.00;90.00
33508;DHT22;25568;37.410;-122.096;2024-01-06T13:33:16;18.00;90.00
33508;DHT22;25568;37.410;-122.096;2024-01-06T13:35:47;18.00;90.00
33508;DHT22;25568;37.410;-122.096;2024-01-06T13:38:16;18.00;90.00
33508;DHT22;25568;37.410;-122.096;2024-01-06T13:40:46;18.10;89.70
33508;DHT22;25568;37.410;-122.096;2024-01-06T13:43:16;18.20;89.50
33508;DHT22;25568;37.410;-122.096;2024-01-06T13:45:49;18.20;89.20
33508;DHT22;25568;37.410;-122.096;2024-01-06T13:48:19;18.30;89.10
33508;DHT22;25568;37.410;-122.096;2024-01-06T13:50:49;18.30;89.30
33508;DHT22;25568;37.410;-122.096;2024-01-06T13:53:18;18.50;89.40
33508;DHT22;25568;37.410;-122.096;2024-01-06T13:55:49;18.50;89.10
33508;DHT22;25568;37.410;-122.096;2024-01-06T13:58:23;18.50;88.50
33508;DHT22;25568;37.410;-122.096;2024-01-06T14:00:56;18.40;88.60
33508;DHT22;25568;37.410;-122.096;2024-01-06T14:03:26;18.40;88.70
33508;DHT22;25568;37.410;-122.096;2024-01-06T14:05:55;18.30;88.70
33508;DHT22;25568;37.410;-122.096;2024-01-06T14:08:25;18.30;88.90
33508;DHT22;25568;37.410;-122.096;2024-01-06T14:10:54;18.30;89.30
33508;DHT22;25568;37.410;-122.096;2024-01-06T14:13:28;18.30;89.20
33508;DHT22;25568;37.410;-122.096;2024-01-06T14:15:59;18.30;89.30
33508;DHT22;25568;37.410;-122.096;2024-01-06T14:18:29;18.20;89.40
33508;DHT22;25568;37.410;-122.096;2024-01-06T14:21:02;18.20;89.40
33508;DHT22;25568;37.410;-122.096;2024-01-06T14:23:33;18.20;89.40
33508;DHT22;25568;37.410;-122.096;2024-01-06T14:26:03;18.20;89.50
33508;DHT22;25568;37.410;-122.096;2024-01-06T14:28:36;18.20;89.50
33508;DHT22;25568;37.410;-122.096;2024-01-06T14:31:07;18.20;89.50
33508;DHT22;25568;37.410;-122.096;2024-01-06T14:33:37;18.20;89.70
33508;DHT22;25568;37.410;-122.096;2024-01-06T14:36:08;18.10;89.70
33508;DHT22;25568;37.410;-122.096;2024-01-06T14:38:39;18.10;89.80
33508;DHT22;25568;37.410;-122.096;2024-01-06T14:41:08;18.10;89.90
33508;DHT22;25568;37.410;-122.096;2024-01-06T14:43:37;18.10;89.90
33508;DHT22;25568;37.410;-122.096;2024-01-06T14:46:13;18.10;89.90
33508;DHT22;25568;37.410;-122.096;2024-01-06T14:48:42;18.10;90.00
33508;DHT22;25568;37.410;-122.096;2024-01-06T14:51:12;18.10;89.90
33508;DHT22;25568;37.410;-122.096;2024-01-06T14:53:42;18.00;89.90
33508;DHT22;25568;37.410;-122.096;2024-01-06T14:56:12;18.10;89.90
33508;DHT22;25568;37.410;-122.096;2024-01-06T14:58:42;18.10;89.90
33508;DHT22;25568;37.410;-122.096;2024-01-06T15:01:13;18.00;89.70
33508;DHT22;25568;37.410;-122.096;2024-01-06T15:03:43;18.00;89.90
33508;DHT22;25568;37.410;-122.096;2024-01-06T15:06:15;18.00;89.90
33508;DHT22;25568;37.410;-122.096;2024-01-06T15:08:49;18.00;89.50
33508;DHT22;25568;37.410;-122.096;2024-01-06T15:11:19;18.00;89.90
33508;DHT22;25568;37.410;-122.096;2024-01-06T15:13:49;18.00;89.90
33508;DHT22;25568;37.410;-122.096;2024-01-06T15:16:22;18.00;89.90
33508;DHT22;25568;37.410;-122.096;2024-01-06T15:18:53;18.00;89.90
33508;DHT22;25568;37.410;-122.096;2024-01-06T15:21:25;18.00;89.90
33508;DHT22;25568;37.410;-122.096;2024-01-06T15:24:00;18.00;89.70